sensor_id;sensor_type;location;lat;lon;timestamp;temperature;humidity
9323;DHT22;4700;48.822;9.270;2023-04-24T00:09:44;11.60;1.00
9323;DHT22;4700;48.822;9.270;2023-04-24T00:12:31;11.60;1.00
9323;DHT22;4700;48.822;9.270;2023-04-24T00:15:17;11.70;1.00
9323;DHT22;4700;48.822;9.270;2023-04-24T00:18:03;11.70;1.00
9323;DHT22;4700;48.822;9.270;2023-04-24T00:20:49;11.70;1.00
9323;DHT22;4700;48.822;9.270;2023-04-24T00:23:37;11.70;1.00
9323;DHT22;4700;48.822;9.270;2023-04-24T00:26:22;11.70;1.00
9323;DHT22;4700;48.822;9.270;2023-04-24T00:29:08;11.80;1.00
9323;DHT22;4700;48.822;9.270;2023-04-24T00:31:54;11.80;1.00
9323;DHT22;4700;48.822;9.270;2023-04-24T00:34:40;11.80;1.00
9323;DHT22;4700;48.822;9.270;2023-04-24T00:37:27;11.80;1.00
9323;DHT22;4700;48.822;9.270;2023-04-24T00:40:14;11.90;1.00
9323;DHT22;4700;48.822;9.270;2023-04-24T00:43:00;11.90;1.00
9323;DHT22;4700;48.822;9.270;2023-04-24T00:45:47;11.90;1.00
9323;DHT22;4700;48.822;9.270;2023-04-24T00:48:33;11.90;1.00
9323;DHT22;4700;48.822;9.270;2023-04-24T00:51:19;11.90;1.00
9323;DHT22;4700;48.822;9.270;2023-04-24T00:54:05;12.00;1.00
9323;DHT22;4700;48.822;9.270;2023-04-24T00:56:53;11.90;1.00
9323;DHT22;4700;48.822;9.270;2023-04-24T00:59:39;12.00;1.00
9323;DHT22;4700;48.822;9.270;2023-04-24T01:02:26;12.00;1.00
9323;DHT22;4700;48.822;9.270;2023-04-24T01:05:13;12.00;1.00
9323;DHT22;4700;48.822;9.270;2023-04-24T01:07:59;12.00;1.00
9323;DHT22;4700;48.822;9.270;2023-04-24T01:10:46;12.00;1.00
9323;DHT22;4700;48.822;9.270;2023-04-24T01:13:34;12.00;1.00
9323;DHT22;4700;48.822;9.270;2023-04-24T01:16:19;12.00;1.00
9323;DHT22;4700;48.822;9.270;2023-04-24T01:19:06;12.10;1.00
9323;DHT22;4700;48.822;9.270;2023-04-24T01:21:54;12.10;1.00
9323;DHT22;4700;48.822;9.270;2023-04-24T01:24:44;12.10;1.00
9323;DHT22;4700;48.822;9.270;2023-04-24T01:27:30;12.10;1.00
9323;DHT22;4700;48.822;9.270;2023-04-24T01:30:16;12.10;1.00
9323;DHT22;4700;48.822;9.270;2023-04-24T01:33:02;12.10;1.00
9323;DHT22;4700;48.822;9.270;2023-04-24T01:35:48;12.10;1.00
9323;DHT22;4700;48.822;9.270;2023-04-24T01:38:34;12.10;1.00
9323;DHT22;4700;48.822;9.270;2023-04-24T01:41:22;12.20;1.00
9323;DHT22;4700;48.822;9.270;2023-04-24T01:44:08;12.20;1.00
9323;DHT22;4700;48.822;9.270;2023-04-24T01:46:55;12.30;1.00
9323;DHT22;4700;48.822;9.270;2023-04-24T01:49:41;12.10;1.00
9323;DHT22;4700;48.822;9.270;2023-04-24T01:52:26;12.10;1.00
9323;DHT22;4700;48.822;9.270;2023-04-24T01:55:15;12.00;1.00
9323;DHT22;4700;48.822;9.270;2023-04-24T01:58:03;11.90;1.00
9323;DHT22;4700;48.822;9.270;2023-04-24T02:00:49;11.90;1.00
9323;DHT22;4700;48.822;9.270;2023-04-24T02:03:35;11.90;1.00
9323;DHT22;4700;48.822;9.270;2023-04-24T02:06:21;11.90;1.00
9323;DHT22;4700;48.822;9.270;2023-04-24T02:09:09;11.90;1.00
9323;DHT22;4700;48.822;9.270;2023-04-24T02:11:56;11.90;1.00
9323;DHT22;4700;48.822;9.270;2023-04-24T02:14:44;11.80;1.00
9323;DHT22;4700;48.822;9.270;2023-04-24T02:17:30;11.90;1.00
9323;DHT22;4700;48.822;9.270;2023-04-24T02:20:16;11.70;1.00
9323;DHT22;4700;48.822;9.270;2023-04-24T02:23:06;11.60;1.00
9323;DHT22;4700;48.822;9.270;2023-04-24T02:25:52;11.70;1.00
9323;DHT22;4700;48.822;9.270;2023-04-24T02:28:38;11.60;1.00
9323;DHT22;4700;48.822;9.270;2023-04-24T02:31:25;11.60;1.00
9323;DHT22;4700;48.822;9.270;2023-04-24T02:34:14;11.60;1.00
9323;DHT22;4700;48.822;9.270;2023-04-24T02:37:04;11.60;1.00
9323;DHT22;4700;48.822;9.270;2023-04-24T02:39:49;11.60;1.00
9323;DHT22;4700;48.822;9.270;2023-04-24T02:42:38;11.60;1.00
9323;DHT22;4700;48.822;9.270;2023-04-24T02:45:24;11.50;1.00
9323;DHT22;4700;48.822;9.270;2023-04-24T02:48:11;11.70;1.00
9323;DHT22;4700;48.822;9.270;2023-04-24T02:50:57;11.70;1.00
9323;DHT22;4700;48.822;9.270;2023-04-24T02:53:43;11.80;1.00
9323;DHT22;4700;48.822;9.270;2023-04-24T02:56:29;11.80;1.00
9323;DHT22;4700;48.822;9.270;2023-04-24T02:59:15;11.80;1.00
9323;DHT22;4700;48.822;9.270;2023-04-24T03:02:01;11.80;1.00
9323;DHT22;4700;48.822;9.270;2023-04-24T03:04:51;11.60;1.00
9323;DHT22;4700;48.822;9.270;2023-04-24T03:13:09;11.50;1.00
9323;DHT22;4700;48.822;9.270;2023-04-24T03:21:31;11.30;1.00
9323;DHT22;4700;48.822;9.270;2023-04-24T03:24:17;11.20;1.00
9323;DHT22;4700;48.822;9.270;2023-04-24T03:27:03;11.10;1.00
9323;DHT22;4700;48.822;9.270;2023-04-24T04:06:32;10.60;1.00
9323;DHT22;4700;48.822;9.270;2023-04-24T04:24:52;10.70;1.00
9323;DHT22;4700;48.822;9.270;2023-04-24T04:27:38;10.70;1.00
9323;DHT22;4700;48.822;9.270;2023-04-24T04:30:25;10.80;1.00
9323;DHT22;4700;48.822;9.270;2023-04-24T04:33:16;10.80;1.00
9323;DHT22;4700;48.822;9.270;2023-04-24T04:41:10;10.80;1.00
9323;DHT22;4700;48.822;9.270;2023-04-24T04:44:01;10.90;1.00
9323;DHT22;4700;48.822;9.270;2023-04-24T04:46:49;10.80;1.00
9323;DHT22;4700;48.822;9.270;2023-04-24T04:49:37;10.90;1.00
9323;DHT22;4700;48.822;9.270;2023-04-24T04:52:26;10.80;1.00
9323;DHT22;4700;48.822;9.270;2023-04-24T04:55:12;10.90;1.00
9323;DHT22;4700;48.822;9.270;2023-04-24T04:58:00;10.90;1.00
9323;DHT22;4700;48.822;9.270;2023-04-24T05:00:47;10.90;1.00
9323;DHT22;4700;48.822;9.270;2023-04-24T05:09:07;10.80;1.00
9323;DHT22;4700;48.822;9.270;2023-04-24T05:11:53;10.80;1.00
9323;DHT22;4700;48.822;9.270;2023-04-24T05:14:41;10.80;1.00
9323;DHT22;4700;48.822;9.270;2023-04-24T05:17:36;10.80;1.00
9323;DHT22;4700;48.822;9.270;2023-04-24T05:20:27;10.80;1.00
9323;DHT22;4700;48.822;9.270;2023-04-24T05:23:12;10.90;1.00
9323;DHT22;4700;48.822;9.270;2023-04-24T05:31:22;10.90;1.00
9323;DHT22;4700;48.822;9.270;2023-04-24T05:37:06;10.80;1.00
9323;DHT22;4700;48.822;9.270;2023-04-24T05:39:57;10.80;1.00
9323;DHT22;4700;48.822;9.270;2023-04-24T05:47:50;10.90;1.00
9323;DHT22;4700;48.822;9.270;2023-04-24T05:50:37;10.90;1.00
9323;DHT22;4700;48.822;9.270;2023-04-24T05:53:23;10.90;1.00
9323;DHT22;4700;48.822;9.270;2023-04-24T05:56:09;10.90;1.00
9323;DHT22;4700;48.822;9.270;2023-04-24T06:01:41;11.40;1.00
9323;DHT22;4700;48.822;9.270;2023-04-24T06:04:29;11.50;1.00
9323;DHT22;4700;48.822;9.270;2023-04-24T06:07:15;11.70;1.00
9323;DHT22;4700;48.822;9.270;2023-04-24T06:10:01;11.70;1.00
9323;DHT22;4700;48.822;9.270;2023-04-24T06:12:47;11.80;1.00
9323;DHT22;4700;48.822;9.270;2023-04-24T06:15:34;11.70;1.00
9323;DHT22;4700;48.822;9.270;2023-04-24T06:18:20;11.60;1.00
9323;DHT22;4700;48.822;9.270;2023-04-24T06:23:54;11.90;1.00
9323;DHT22;4700;48.822;9.270;2023-04-24T06:29:29;12.20;1.00
9323;DHT22;4700;48.822;9.270;2023-04-24T06:35:02;12.60;1.00
9323;DHT22;4700;48.822;9.270;2023-04-24T06:37:50;12.80;1.00
9323;DHT22;4700;48.822;9.270;2023-04-24T06:40:44;14.80;1.00
9323;DHT22;4700;48.822;9.270;2023-04-24T06:43:33;17.70;1.00
9323;DHT22;4700;48.822;9.270;2023-04-24T06:46:23;19.90;1.00
9323;DHT22;4700;48.822;9.270;2023-04-24T06:49:10;20.70;1.00
9323;DHT22;4700;48.822;9.270;2023-04-24T06:51:55;22.00;1.00
9323;DHT22;4700;48.822;9.270;2023-04-24T06:54:42;24.00;1.00
9323;DHT22;4700;48.822;9.270;2023-04-24T06:57:31;24.40;1.00
9323;DHT22;4700;48.822;9.270;2023-04-24T07:00:18;26.00;1.00
9323;DHT22;4700;48.822;9.270;2023-04-24T07:03:04;25.70;1.00
9323;DHT22;4700;48.822;9.270;2023-04-24T07:05:50;25.00;1.00
9323;DHT22;4700;48.822;9.270;2023-04-24T07:08:37;23.60;1.00
9323;DHT22;4700;48.822;9.270;2023-04-24T07:11:24;22.80;1.00
9323;DHT22;4700;48.822;9.270;2023-04-24T07:14:13;23.80;1.00
9323;DHT22;4700;48.822;9.270;2023-04-24T07:16:59;24.50;1.00
9323;DHT22;4700;48.822;9.270;2023-04-24T07:19:48;22.40;1.00
9323;DHT22;4700;48.822;9.270;2023-04-24T07:22:34;19.70;1.00
9323;DHT22;4700;48.822;9.270;2023-04-24T07:25:20;18.00;1.00
9323;DHT22;4700;48.822;9.270;2023-04-24T07:28:08;16.80;1.00
9323;DHT22;4700;48.822;9.270;2023-04-24T07:30:55;15.70;1.00
9323;DHT22;4700;48.822;9.270;2023-04-24T07:33:43;14.90;1.00
9323;DHT22;4700;48.822;9.270;2023-04-24T07:36:29;14.30;1.00
9323;DHT22;4700;48.822;9.270;2023-04-24T07:39:18;13.90;1.00
9323;DHT22;4700;48.822;9.270;2023-04-24T07:42:05;13.70;1.00
9323;DHT22;4700;48.822;9.270;2023-04-24T07:44:52;13.60;1.00
9323;DHT22;4700;48.822;9.270;2023-04-24T07:47:38;13.50;1.00
9323;DHT22;4700;48.822;9.270;2023-04-24T07:50:27;13.80;1.00
9323;DHT22;4700;48.822;9.270;2023-04-24T07:53:13;14.40;1.00
9323;DHT22;4700;48.822;9.270;2023-04-24T07:55:59;14.70;1.00
9323;DHT22;4700;48.822;9.270;2023-04-24T07:58:44;14.40;1.00
9323;DHT22;4700;48.822;9.270;2023-04-24T08:01:35;14.40;1.00
9323;DHT22;4700;48.822;9.270;2023-04-24T08:04:26;14.80;1.00
9323;DHT22;4700;48.822;9.270;2023-04-24T08:07:15;15.40;1.00
9323;DHT22;4700;48.822;9.270;2023-04-24T08:10:02;16.90;1.00
9323;DHT22;4700;48.822;9.270;2023-04-24T08:12:51;16.80;1.00
9323;DHT22;4700;48.822;9.270;2023-04-24T08:15:40;16.10;1.00
9323;DHT22;4700;48.822;9.270;2023-04-24T08:18:28;15.30;1.00
9323;DHT22;4700;48.822;9.270;2023-04-24T08:21:16;14.70;1.00
9323;DHT22;4700;48.822;9.270;2023-04-24T08:24:03;14.70;1.00
9323;DHT22;4700;48.822;9.270;2023-04-24T08:26:53;16.60;1.00
9323;DHT22;4700;48.822;9.270;2023-04-24T08:29:44;18.50;1.00
9323;DHT22;4700;48.822;9.270;2023-04-24T08:38:07;21.30;1.00
9323;DHT22;4700;48.822;9.270;2023-04-24T08:40:54;22.50;1.00
9323;DHT22;4700;48.822;9.270;2023-04-24T08:43:44;22.40;1.00
9323;DHT22;4700;48.822;9.270;2023-04-24T08:46:34;22.40;1.00
9323;DHT22;4700;48.822;9.270;2023-04-24T08:49:24;23.40;1.00
9323;DHT22;4700;48.822;9.270;2023-04-24T08:52:12;23.80;1.00
9323;DHT22;4700;48.822;9.270;2023-04-24T08:55:00;22.90;1.00
9323;DHT22;4700;48.822;9.270;2023-04-24T08:57:50;20.40;1.00
9323;DHT22;4700;48.822;9.270;2023-04-24T09:00:39;18.40;1.00
9323;DHT22;4700;48.822;9.270;2023-04-24T09:03:28;16.50;1.00
9323;DHT22;4700;48.822;9.270;2023-04-24T09:06:15;15.60;1.00
9323;DHT22;4700;48.822;9.270;2023-04-24T09:09:03;15.20;1.00
9323;DHT22;4700;48.822;9.270;2023-04-24T09:11:52;14.90;1.00
9323;DHT22;4700;48.822;9.270;2023-04-24T09:14:39;15.10;1.00
9323;DHT22;4700;48.822;9.270;2023-04-24T09:17:29;15.50;1.00
9323;DHT22;4700;48.822;9.270;2023-04-24T09:20:18;15.50;1.00
9323;DHT22;4700;48.822;9.270;2023-04-24T09:23:05;15.30;1.00
9323;DHT22;4700;48.822;9.270;2023-04-24T09:25:54;14.60;1.00
9323;DHT22;4700;48.822;9.270;2023-04-24T09:28:41;13.90;1.00
9323;DHT22;4700;48.822;9.270;2023-04-24T09:31:30;13.30;1.00
9323;DHT22;4700;48.822;9.270;2023-04-24T09:34:24;12.80;1.00
9323;DHT22;4700;48.822;9.270;2023-04-24T09:37:11;12.40;1.00
9323;DHT22;4700;48.822;9.270;2023-04-24T09:40:14;12.10;1.00
9323;DHT22;4700;48.822;9.270;2023-04-24T09:45:35;12.10;1.00
9323;DHT22;4700;48.822;9.270;2023-04-24T09:48:30;12.20;1.00
9323;DHT22;4700;48.822;9.270;2023-04-24T09:51:33;12.60;1.00
9323;DHT22;4700;48.822;9.270;2023-04-24T09:54:20;13.30;1.00
9323;DHT22;4700;48.822;9.270;2023-04-24T09:57:07;14.30;1.00
9323;DHT22;4700;48.822;9.270;2023-04-24T09:59:53;14.50;1.00
9323;DHT22;4700;48.822;9.270;2023-04-24T10:02:41;14.60;1.00
9323;DHT22;4700;48.822;9.270;2023-04-24T10:05:30;14.30;1.00
9323;DHT22;4700;48.822;9.270;2023-04-24T10:08:16;14.10;1.00
9323;DHT22;4700;48.822;9.270;2023-04-24T10:11:03;14.00;1.00
9323;DHT22;4700;48.822;9.270;2023-04-24T10:13:49;14.00;1.00
9323;DHT22;4700;48.822;9.270;2023-04-24T10:16:37;14.10;1.00
9323;DHT22;4700;48.822;9.270;2023-04-24T10:19:26;14.10;1.00
9323;DHT22;4700;48.822;9.270;2023-04-24T10:22:14;14.20;1.00
9323;DHT22;4700;48.822;9.270;2023-04-24T10:25:04;14.30;1.00
9323;DHT22;4700;48.822;9.270;2023-04-24T10:27:52;15.20;1.00
9323;DHT22;4700;48.822;9.270;2023-04-24T10:30:43;14.80;1.00
9323;DHT22;4700;48.822;9.270;2023-04-24T10:33:30;14.70;1.00
9323;DHT22;4700;48.822;9.270;2023-04-24T10:36:18;14.90;1.00
9323;DHT22;4700;48.822;9.270;2023-04-24T10:39:08;14.90;1.00
9323;DHT22;4700;48.822;9.270;2023-04-24T10:41:55;14.90;1.00
9323;DHT22;4700;48.822;9.270;2023-04-24T10:44:42;14.30;1.00
9323;DHT22;4700;48.822;9.270;2023-04-24T10:47:27;14.10;1.00
9323;DHT22;4700;48.822;9.270;2023-04-24T10:50:14;13.60;1.00
9323;DHT22;4700;48.822;9.270;2023-04-24T10:53:11;13.40;1.00
9323;DHT22;4700;48.822;9.270;2023-04-24T10:56:02;13.00;1.00
9323;DHT22;4700;48.822;9.270;2023-04-24T10:58:50;12.80;1.00
9323;DHT22;4700;48.822;9.270;2023-04-24T11:01:38;12.90;1.00
9323;DHT22;4700;48.822;9.270;2023-04-24T11:04:32;13.20;1.00
9323;DHT22;4700;48.822;9.270;2023-04-24T11:07:21;13.30;1.00
9323;DHT22;4700;48.822;9.270;2023-04-24T11:10:08;13.40;1.00
9323;DHT22;4700;48.822;9.270;2023-04-24T11:13:10;13.60;1.00
9323;DHT22;4700;48.822;9.270;2023-04-24T11:16:16;13.70;1.00
9323;DHT22;4700;48.822;9.270;2023-04-24T11:19:07;14.10;1.00
9323;DHT22;4700;48.822;9.270;2023-04-24T11:21:58;14.10;1.00
9323;DHT22;4700;48.822;9.270;2023-04-24T11:24:49;14.10;1.00
9323;DHT22;4700;48.822;9.270;2023-04-24T11:27:41;14.00;1.00
9323;DHT22;4700;48.822;9.270;2023-04-24T11:30:29;14.00;1.00
9323;DHT22;4700;48.822;9.270;2023-04-24T11:33:20;14.40;1.00
9323;DHT22;4700;48.822;9.270;2023-04-24T11:36:07;14.50;1.00
9323;DHT22;4700;48.822;9.270;2023-04-24T11:38:56;14.50;1.00
9323;DHT22;4700;48.822;9.270;2023-04-24T11:41:42;14.80;1.00
9323;DHT22;4700;48.822;9.270;2023-04-24T11:44:30;15.10;1.00
9323;DHT22;4700;48.822;9.270;2023-04-24T11:47:17;15.10;1.00
9323;DHT22;4700;48.822;9.270;2023-04-24T11:50:04;14.90;1.00
9323;DHT22;4700;48.822;9.270;2023-04-24T11:52:51;14.60;1.00
9323;DHT22;4700;48.822;9.270;2023-04-24T11:55:39;14.50;1.00
9323;DHT22;4700;48.822;9.270;2023-04-24T11:58:26;14.50;1.00
9323;DHT22;4700;48.822;9.270;2023-04-24T12:01:13;14.40;1.00
9323;DHT22;4700;48.822;9.270;2023-04-24T12:04:01;13.80;1.00
9323;DHT22;4700;48.822;9.270;2023-04-24T12:06:59;13.50;1.00
9323;DHT22;4700;48.822;9.270;2023-04-24T12:09:47;13.40;1.00
9323;DHT22;4700;48.822;9.270;2023-04-24T12:12:33;13.80;1.00
9323;DHT22;4700;48.822;9.270;2023-04-24T12:15:19;14.30;1.00
9323;DHT22;4700;48.822;9.270;2023-04-24T12:18:11;14.60;1.00
9323;DHT22;4700;48.822;9.270;2023-04-24T12:21:16;14.60;1.00
9323;DHT22;4700;48.822;9.270;2023-04-24T12:24:01;14.90;1.00
9323;DHT22;4700;48.822;9.270;2023-04-24T12:26:51;14.90;1.00
9323;DHT22;4700;48.822;9.270;2023-04-24T12:29:51;14.90;1.00
9323;DHT22;4700;48.822;9.270;2023-04-24T12:32:41;14.60;1.00
9323;DHT22;4700;48.822;9.270;2023-04-24T12:35:31;14.30;1.00
9323;DHT22;4700;48.822;9.270;2023-04-24T12:38:22;13.90;1.00
9323;DHT22;4700;48.822;9.270;2023-04-24T12:41:10;13.80;1.00
9323;DHT22;4700;48.822;9.270;2023-04-24T12:43:57;13.80;1.00
9323;DHT22;4700;48.822;9.270;2023-04-24T12:46:42;13.80;1.00
9323;DHT22;4700;48.822;9.270;2023-04-24T12:49:33;13.70;1.00
9323;DHT22;4700;48.822;9.270;2023-04-24T12:52:20;13.50;1.00
9323;DHT22;4700;48.822;9.270;2023-04-24T12:55:07;13.40;1.00
9323;DHT22;4700;48.822;9.270;2023-04-24T12:57:56;13.40;1.00
9323;DHT22;4700;48.822;9.270;2023-04-24T13:00:42;13.50;1.00
9323;DHT22;4700;48.822;9.270;2023-04-24T13:03:30;13.70;1.00
9323;DHT22;4700;48.822;9.270;2023-04-24T13:06:15;13.70;1.00
9323;DHT22;4700;48.822;9.270;2023-04-24T13:09:06;13.50;1.00
9323;DHT22;4700;48.822;9.270;2023-04-24T13:11:52;13.40;1.00
9323;DHT22;4700;48.822;9.270;2023-04-24T13:14:38;13.00;1.00
9323;DHT22;4700;48.822;9.270;2023-04-24T13:17:24;12.70;1.00
9323;DHT22;4700;48.822;9.270;2023-04-24T13:20:11;12.50;1.00
9323;DHT22;4700;48.822;9.270;2023-04-24T13:22:58;12.60;1.00
9323;DHT22;4700;48.822;9.270;2023-04-24T13:25:46;12.80;1.00
9323;DHT22;4700;48.822;9.270;2023-04-24T13:28:32;13.20;1.00
9323;DHT22;4700;48.822;9.270;2023-04-24T13:31:18;13.40;1.00
9323;DHT22;4700;48.822;9.270;2023-04-24T13:34:04;13.50;1.00
9323;DHT22;4700;48.822;9.270;2023-04-24T13:36:50;13.40;1.00
9323;DHT22;4700;48.822;9.270;2023-04-24T13:39:36;13.40;1.00
9323;DHT22;4700;48.822;9.270;2023-04-24T13:45:10;14.00;1.00
9323;DHT22;4700;48.822;9.270;2023-04-24T13:47:58;14.10;1.00
9323;DHT22;4700;48.822;9.270;2023-04-24T13:50:45;14.20;1.00
9323;DHT22;4700;48.822;9.270;2023-04-24T13:53:32;13.90;1.00
9323;DHT22;4700;48.822;9.270;2023-04-24T13:56:22;13.70;1.00
9323;DHT22;4700;48.822;9.270;2023-04-24T13:59:12;13.40;1.00
9323;DHT22;4700;48.822;9.270;2023-04-24T14:01:58;13.30;1.00
9323;DHT22;4700;48.822;9.270;2023-04-24T14:04:44;13.00;1.00
9323;DHT22;4700;48.822;9.270;2023-04-24T14:07:30;12.70;1.00
9323;DHT22;4700;48.822;9.270;2023-04-24T14:13:04;12.80;1.00
9323;DHT22;4700;48.822;9.270;2023-04-24T14:15:53;13.00;1.00
9323;DHT22;4700;48.822;9.270;2023-04-24T14:18:40;13.20;1.00
9323;DHT22;4700;48.822;9.270;2023-04-24T14:21:26;13.40;1.00
9323;DHT22;4700;48.822;9.270;2023-04-24T14:24:16;13.40;1.00
9323;DHT22;4700;48.822;9.270;2023-04-24T14:27:01;13.50;1.00
9323;DHT22;4700;48.822;9.270;2023-04-24T14:29:47;13.60;1.00
9323;DHT22;4700;48.822;9.270;2023-04-24T14:32:36;13.70;1.00
9323;DHT22;4700;48.822;9.270;2023-04-24T14:35:22;13.80;1.00
9323;DHT22;4700;48.822;9.270;2023-04-24T14:38:11;13.80;1.00
9323;DHT22;4700;48.822;9.270;2023-04-24T14:40:57;14.00;1.00
9323;DHT22;4700;48.822;9.270;2023-04-24T14:43:43;14.00;1.00
9323;DHT22;4700;48.822;9.270;2023-04-24T14:46:29;14.00;1.00
9323;DHT22;4700;48.822;9.270;2023-04-24T14:49:18;14.00;1.00
9323;DHT22;4700;48.822;9.270;2023-04-24T14:52:04;13.90;1.00
9323;DHT22;4700;48.822;9.270;2023-04-24T14:54:50;13.80;1.00
9323;DHT22;4700;48.822;9.270;2023-04-24T14:57:40;13.70;1.00
9323;DHT22;4700;48.822;9.270;2023-04-24T15:00:28;13.60;1.00
9323;DHT22;4700;48.822;9.270;2023-04-24T15:03:15;13.70;1.00
9323;DHT22;4700;48.822;9.270;2023-04-24T15:06:06;13.80;1.00
9323;DHT22;4700;48.822;9.270;2023-04-24T15:08:51;14.10;1.00
9323;DHT22;4700;48.822;9.270;2023-04-24T15:11:37;14.10;1.00
9323;DHT22;4700;48.822;9.270;2023-04-24T15:14:23;14.30;1.00
9323;DHT22;4700;48.822;9.270;2023-04-24T15:17:10;14.30;1.00
9323;DHT22;4700;48.822;9.270;2023-04-24T15:19:56;14.00;1.00
9323;DHT22;4700;48.822;9.270;2023-04-24T15:22:43;13.60;1.00
9323;DHT22;4700;48.822;9.270;2023-04-24T15:25:30;13.10;1.00
9323;DHT22;4700;48.822;9.270;2023-04-24T15:28:17;13.10;1.00
9323;DHT22;4700;48.822;9.270;2023-04-24T15:31:03;13.20;1.00
9323;DHT22;4700;48.822;9.270;2023-04-24T15:33:49;13.30;1.00
9323;DHT22;4700;48.822;9.270;2023-04-24T15:36:35;13.50;1.00
9323;DHT22;4700;48.822;9.270;2023-04-24T15:39:23;13.50;1.00
9323;DHT22;4700;48.822;9.270;2023-04-24T15:42:09;13.40;1.00
9323;DHT22;4700;48.822;9.270;2023-04-24T15:47:25;12.70;1.00
9323;DHT22;4700;48.822;9.270;2023-04-24T15:50:11;12.70;1.00
9323;DHT22;4700;48.822;9.270;2023-04-24T15:55:45;12.10;1.00
9323;DHT22;4700;48.822;9.270;2023-04-24T15:58:31;12.10;1.00
9323;DHT22;4700;48.822;9.270;2023-04-24T16:01:17;12.20;1.00
9323;DHT22;4700;48.822;9.270;2023-04-24T16:04:03;12.30;1.00
9323;DHT22;4700;48.822;9.270;2023-04-24T16:06:49;12.30;1.00
9323;DHT22;4700;48.822;9.270;2023-04-24T16:09:35;12.60;1.00
9323;DHT22;4700;48.822;9.270;2023-04-24T16:12:22;12.80;1.00
9323;DHT22;4700;48.822;9.270;2023-04-24T16:15:11;12.90;1.00
9323;DHT22;4700;48.822;9.270;2023-04-24T16:17:57;12.80;1.00
9323;DHT22;4700;48.822;9.270;2023-04-24T16:20:43;12.90;1.00
9323;DHT22;4700;48.822;9.270;2023-04-24T16:23:29;12.90;1.00
9323;DHT22;4700;48.822;9.270;2023-04-24T16:26:15;13.00;1.00
9323;DHT22;4700;48.822;9.270;2023-04-24T16:29:02;13.00;1.00
9323;DHT22;4700;48.822;9.270;2023-04-24T16:31:48;12.90;1.00
9323;DHT22;4700;48.822;9.270;2023-04-24T16:34:34;12.80;1.00
9323;DHT22;4700;48.822;9.270;2023-04-24T16:37:20;12.80;1.00
9323;DHT22;4700;48.822;9.270;2023-04-24T16:40:08;12.90;1.00
9323;DHT22;4700;48.822;9.270;2023-04-24T16:42:55;13.10;1.00
9323;DHT22;4700;48.822;9.270;2023-04-24T16:45:42;13.10;1.00
9323;DHT22;4700;48.822;9.270;2023-04-24T16:48:31;13.00;1.00
9323;DHT22;4700;48.822;9.270;2023-04-24T16:51:17;12.90;1.00
9323;DHT22;4700;48.822;9.270;2023-04-24T16:56:49;12.60;1.00
9323;DHT22;4700;48.822;9.270;2023-04-24T17:02:23;12.30;1.00
9323;DHT22;4700;48.822;9.270;2023-04-24T17:05:09;12.30;1.00
9323;DHT22;4700;48.822;9.270;2023-04-24T17:07:55;12.30;1.00
9323;DHT22;4700;48.822;9.270;2023-04-24T17:10:41;12.20;1.00
9323;DHT22;4700;48.822;9.270;2023-04-24T17:13:27;12.20;1.00
9323;DHT22;4700;48.822;9.270;2023-04-24T17:16:13;12.10;1.00
9323;DHT22;4700;48.822;9.270;2023-04-24T17:19:01;12.10;1.00
9323;DHT22;4700;48.822;9.270;2023-04-24T17:21:47;12.10;1.00
9323;DHT22;4700;48.822;9.270;2023-04-24T17:24:33;11.30;1.00
9323;DHT22;4700;48.822;9.270;2023-04-24T17:27:19;12.10;1.00
9323;DHT22;4700;48.822;9.270;2023-04-24T17:30:06;12.10;1.00
9323;DHT22;4700;48.822;9.270;2023-04-24T17:32:52;12.10;1.00
9323;DHT22;4700;48.822;9.270;2023-04-24T17:38:26;12.10;1.00
9323;DHT22;4700;48.822;9.270;2023-04-24T17:41:13;12.00;1.00
9323;DHT22;4700;48.822;9.270;2023-04-24T17:44:09;12.00;1.00
9323;DHT22;4700;48.822;9.270;2023-04-24T17:49:30;11.80;1.00
9323;DHT22;4700;48.822;9.270;2023-04-24T17:57:39;11.70;1.00
9323;DHT22;4700;48.822;9.270;2023-04-24T18:00:25;11.70;1.00
9323;DHT22;4700;48.822;9.270;2023-04-24T18:03:11;11.60;1.00
9323;DHT22;4700;48.822;9.270;2023-04-24T18:05:57;11.60;1.00
9323;DHT22;4700;48.822;9.270;2023-04-24T18:08:43;11.60;1.00
9323;DHT22;4700;48.822;9.270;2023-04-24T18:11:31;11.50;1.00
9323;DHT22;4700;48.822;9.270;2023-04-24T18:14:22;11.50;1.00
9323;DHT22;4700;48.822;9.270;2023-04-24T18:17:09;11.60;1.00
9323;DHT22;4700;48.822;9.270;2023-04-24T18:19:57;11.50;1.00
9323;DHT22;4700;48.822;9.270;2023-04-24T18:22:43;11.50;1.00
9323;DHT22;4700;48.822;9.270;2023-04-24T18:28:27;11.40;1.00
9323;DHT22;4700;48.822;9.270;2023-04-24T18:31:14;11.40;1.00
9323;DHT22;4700;48.822;9.270;2023-04-24T18:36:47;11.40;1.00
9323;DHT22;4700;48.822;9.270;2023-04-24T18:39:33;11.40;1.00
9323;DHT22;4700;48.822;9.270;2023-04-24T18:42:19;11.40;1.00
9323;DHT22;4700;48.822;9.270;2023-04-24T18:45:08;11.40;1.00
9323;DHT22;4700;48.822;9.270;2023-04-24T18:47:54;11.40;1.00
9323;DHT22;4700;48.822;9.270;2023-04-24T18:50:54;11.30;1.00
9323;DHT22;4700;48.822;9.270;2023-04-24T18:53:40;11.40;1.00
9323;DHT22;4700;48.822;9.270;2023-04-24T18:59:02;11.30;1.00
9323;DHT22;4700;48.822;9.270;2023-04-24T19:01:50;11.30;1.00
9323;DHT22;4700;48.822;9.270;2023-04-24T19:04:37;11.20;1.00
9323;DHT22;4700;48.822;9.270;2023-04-24T19:07:23;11.20;1.00
9323;DHT22;4700;48.822;9.270;2023-04-24T19:12:56;11.00;1.00
9323;DHT22;4700;48.822;9.270;2023-04-24T19:47:43;10.30;1.00
9323;DHT22;4700;48.822;9.270;2023-04-24T19:55:41;10.20;1.00
9323;DHT22;4700;48.822;9.270;2023-04-24T20:37:29;9.70;1.00
9323;DHT22;4700;48.822;9.270;2023-04-24T20:40:15;9.70;1.00
9323;DHT22;4700;48.822;9.270;2023-04-24T22:10:44;9.50;1.00
9323;DHT22;4700;48.822;9.270;2023-04-24T22:13:34;9.50;1.00
9323;DHT22;4700;48.822;9.270;2023-04-24T22:32:34;9.70;1.00
9323;DHT22;4700;48.822;9.270;2023-04-24T22:40:31;9.70;1.00
9323;DHT22;4700;48.822;9.270;2023-04-24T22:43:18;9.70;1.00
9323;DHT22;4700;48.822;9.270;2023-04-24T22:46:08;9.70;1.00
9323;DHT22;4700;48.822;9.270;2023-04-24T22:48:54;9.70;1.00
9323;DHT22;4700;48.822;9.270;2023-04-24T22:51:42;9.60;1.00
9323;DHT22;4700;48.822;9.270;2023-04-24T22:54:27;9.60;1.00
9323;DHT22;4700;48.822;9.270;2023-04-24T22:57:14;9.50;1.00
9323;DHT22;4700;48.822;9.270;2023-04-24T23:00:00;9.40;1.00
9323;DHT22;4700;48.822;9.270;2023-04-24T23:05:33;9.40;1.00
9323;DHT22;4700;48.822;9.270;2023-04-24T23:16:17;9.50;1.00
9323;DHT22;4700;48.822;9.270;2023-04-24T23:19:04;9.50;1.00
